Time;durP1;ratioP1;P1;durP2;ratioP2;P2;SDS_P1;SDS_P2;PMS_P1;PMS_P2;Temp;Humidity;BMP_temperature;BMP_pressure;BME280_temperature;BME280_humidity;BME280_pressure;Samples;Min_cycle;Max_cycle;Signal;HPM_P1;HPM_P2
2023/06/09 00:00:07;;;;;;;7.20;6.60;;;19.10;99.90;;;;;;5016983;28;20930;-72
2023/06/09 00:02:33;;;;;;;9.10;8.20;;;19.10;99.90;;;;;;5015458;28;21179;-72
2023/06/09 00:04:59;;;;;;;8.60;7.80;;;19.10;99.90;;;;;;5017241;28;20601;-72
2023/06/09 00:07:27;;;;;;;9.30;8.40;;;19.00;99.90;;;;;;5016957;28;20705;-72
2023/06/09 00:09:53;;;;;;;8.13;7.43;;;19.00;99.90;;;;;;5016050;28;20656;-72
2023/06/09 00:12:18;;;;;;;7.10;6.50;;;19.00;99.90;;;;;;5003642;28;20644;-73
2023/06/09 00:14:44;;;;;;;8.57;7.67;;;19.00;99.90;;;;;;4997019;28;21126;-73
2023/06/09 00:17:10;;;;;;;9.80;8.90;;;19.00;99.90;;;;;;4998133;28;20630;-73
2023/06/09 00:19:37;;;;;;;8.67;7.87;;;19.00;99.90;;;;;;5011432;28;20182;-75
2023/06/09 00:22:03;;;;;;;8.20;7.40;;;19.00;99.90;;;;;;5015292;28;20631;-74
2023/06/09 00:24:29;;;;;;;8.93;8.13;;;18.90;99.90;;;;;;5016769;28;20637;-74
2023/06/09 00:27:03;;;;;;;11.33;9.80;;;18.90;99.90;;;;;;5037186;23;20672;-75
2023/06/09 00:29:56;;;;;;;10.20;9.30;;;18.90;99.90;;;;;;4948482;28;20649;-74
2023/06/09 00:33:13;;;;;;;;;;;;;;;;;;;;;
2023/06/09 00:37:46;;;;;;;9.30;8.40;;;18.90;99.90;;;;;;4984565;28;21275;-74
2023/06/09 00:45:05;;;;;;;8.90;8.00;;;18.80;99.90;;;;;;4943827;29;20598;-74
2023/06/09 00:49:00;;;;;;;9.80;8.87;;;18.70;99.90;;;;;;4947064;29;20607;-74
2023/06/09 00:55:49;;;;;;;11.80;8.60;;;18.70;99.90;;;;;;4871078;29;20627;-74
2023/06/09 00:59:24;;;;;;;;;;;;;;;;;;;;;
2023/06/09 01:02:28;;;;;;;8.23;7.00;;;18.70;99.90;;;;;;4862483;29;20598;-75
2023/06/09 01:13:54;;;;;;;8.70;7.90;;;18.60;99.90;;;;;;4848799;29;20628;-73
2023/06/09 01:16:53;;;;;;;10.07;9.20;;;18.60;99.90;;;;;;4870873;29;20732;-72
2023/06/09 01:32:51;;;;;;;9.43;8.57;;;18.40;99.90;;;;;;4909285;28;20620;-73
2023/06/09 01:36:00;;;;;;;8.77;7.97;;;18.40;99.90;;;;;;4859413;29;20645;-73
2023/06/09 01:39:30;;;;;;;9.27;8.47;;;18.40;99.90;;;;;;4877743;29;21186;-73
2023/06/09 01:47:18;;;;;;;8.90;7.57;;;18.30;99.90;;;;;;4878458;29;20622;-72
2023/06/09 01:59:14;;;;;;;8.67;7.87;;;18.20;99.90;;;;;;4806740;29;20646;-73
2023/06/09 02:19:45;;;;;;;8.53;7.90;;;18.00;99.90;;;;;;4813247;29;20624;-73
2023/06/09 02:32:43;;;;;;;9.97;8.97;;;17.90;99.90;;;;;;5070980;27;20793;-72
2023/06/09 02:35:57;;;;;;;;;;;;;;;;;;;;;
2023/06/09 02:39:44;;;;;;;9.00;8.30;;;17.80;99.90;;;;;;4966140;28;20603;-72
2023/06/09 02:43:19;;;;;;;9.50;8.50;;;17.80;99.90;;;;;;4909995;29;21170;-72
2023/06/09 02:47:07;;;;;;;9.80;9.00;;;17.80;99.90;;;;;;4874163;29;20776;-73
2023/06/09 02:50:48;;;;;;;10.13;9.23;;;17.70;99.90;;;;;;4860310;29;20682;-73
2023/06/09 02:54:23;;;;;;;;;;;;;;;;;;;;;
2023/06/09 03:08:09;;;;;;;10.53;9.50;;;17.60;99.90;;;;;;4868308;28;20596;-76
2023/06/09 03:11:55;;;;;;;10.27;9.30;;;17.60;99.90;;;;;;4961207;28;20644;-76
2023/06/09 03:23:34;;;;;;;10.47;9.60;;;17.50;99.90;;;;;;4870965;29;20645;-76
2023/06/09 03:26:54;;;;;;;9.90;8.90;;;17.50;99.90;;;;;;4857088;28;20649;-75
2023/06/09 03:42:50;;;;;;;9.73;8.83;;;17.40;99.90;;;;;;4794128;29;20595;-75
2023/06/09 03:46:14;;;;;;;8.90;8.20;;;17.40;99.90;;;;;;4795992;29;20630;-75
2023/06/09 03:49:43;;;;;;;9.80;8.90;;;17.40;99.90;;;;;;4812109;29;20590;-75
2023/06/09 03:52:52;;;;;;;9.67;8.77;;;17.40;99.90;;;;;;4809827;29;20613;-74
2023/06/09 03:56:27;;;;;;;10.43;9.53;;;17.40;99.90;;;;;;4845167;29;20723;-74
2023/06/09 03:59:48;;;;;;;9.60;8.80;;;17.40;99.90;;;;;;4796816;29;20603;-74
2023/06/09 04:02:31;;;;;;;10.63;9.53;;;17.40;99.90;;;;;;4840576;29;20974;-74
2023/06/09 04:05:30;;;;;;;9.93;9.03;;;17.50;99.90;;;;;;4805628;29;20827;-75
2023/06/09 04:11:14;;;;;;;9.77;8.87;;;17.60;99.90;;;;;;4917798;28;20644;-75
2023/06/09 04:14:15;;;;;;;10.83;9.83;;;17.60;99.90;;;;;;4996922;28;20590;-75
2023/06/09 04:16:46;;;;;;;9.33;8.37;;;17.70;99.90;;;;;;4964005;28;20629;-75
2023/06/09 04:19:18;;;;;;;10.93;10.03;;;17.80;99.90;;;;;;4997034;28;20727;-75
2023/06/09 04:22:07;;;;;;;;;;;;;;;;;;;;;
2023/06/09 04:24:34;;;;;;;10.17;9.23;;;17.90;99.90;;;;;;4999164;28;20671;-75
2023/06/09 04:27:03;;;;;;;9.07;8.27;;;18.00;99.90;;;;;;4997703;28;20608;-75
2023/06/09 04:29:31;;;;;;;9.60;8.80;;;18.20;99.90;;;;;;4977884;28;20577;-75
2023/06/09 04:31:58;;;;;;;9.70;8.63;;;18.40;99.90;;;;;;5014253;28;20650;-75
2023/06/09 04:34:29;;;;;;;9.77;8.87;;;18.60;99.90;;;;;;4998779;28;20678;-75
2023/06/09 04:36:56;;;;;;;8.23;7.50;;;18.80;99.90;;;;;;5021292;28;20611;-75
2023/06/09 04:39:25;;;;;;;9.20;8.50;;;18.90;99.90;;;;;;5018490;28;20941;-75
2023/06/09 04:41:55;;;;;;;8.60;7.90;;;19.10;99.90;;;;;;5034199;28;20690;-76
2023/06/09 04:44:23;;;;;;;8.80;8.00;;;19.30;99.90;;;;;;5018564;28;20619;-75
2023/06/09 04:46:51;;;;;;;8.10;7.40;;;19.50;99.90;;;;;;5034243;28;20655;-75
2023/06/09 04:49:17;;;;;;;8.07;7.37;;;19.60;99.90;;;;;;5034716;28;20602;-75
2023/06/09 04:51:48;;;;;;;8.47;7.77;;;19.70;99.90;;;;;;5033912;28;20620;-75
2023/06/09 04:54:28;;;;;;;7.93;7.30;;;19.80;99.90;;;;;;5002266;28;20204;-75
2023/06/09 04:56:57;;;;;;;7.83;7.13;;;20.00;99.90;;;;;;5034445;28;21408;-76
2023/06/09 04:59:25;;;;;;;7.03;6.53;;;20.10;99.90;;;;;;5017931;28;20576;-76
2023/06/09 05:01:52;;;;;;;6.60;6.10;;;20.20;99.90;;;;;;5034221;28;20614;-76
2023/06/09 05:04:18;;;;;;;6.97;6.37;;;20.40;99.90;;;;;;5034031;28;20660;-76
2023/06/09 05:06:45;;;;;;;7.63;6.93;;;20.50;99.90;;;;;;5034555;28;20631;-76
2023/06/09 05:09:12;;;;;;;7.97;7.30;;;20.50;99.90;;;;;;5017516;28;20587;-76
2023/06/09 05:11:38;;;;;;;7.73;7.03;;;20.60;99.90;;;;;;5033931;28;20667;-74
2023/06/09 05:14:05;;;;;;;6.93;6.33;;;20.90;99.90;;;;;;5017346;28;20608;-75
2023/06/09 05:16:33;;;;;;;6.37;5.87;;;21.10;99.90;;;;;;5034244;28;20197;-76
2023/06/09 05:18:59;;;;;;;5.70;5.27;;;21.40;99.90;;;;;;5033940;28;20942;-75
2023/06/09 05:21:26;;;;;;;5.93;5.43;;;21.60;99.90;;;;;;5033726;28;20591;-75
2023/06/09 05:23:54;;;;;;;5.73;5.23;;;21.80;99.90;;;;;;5010905;28;20640;-75
2023/06/09 05:26:20;;;;;;;7.30;6.60;;;21.90;99.90;;;;;;5031664;28;20620;-75
2023/06/09 05:28:47;;;;;;;5.77;5.17;;;22.10;99.90;;;;;;5014112;28;20569;-75
2023/06/09 05:31:13;;;;;;;6.00;5.50;;;22.30;99.90;;;;;;5013297;28;20719;-76
2023/06/09 05:33:39;;;;;;;5.77;5.17;;;22.40;99.90;;;;;;4997889;28;21139;-75
2023/06/09 05:36:06;;;;;;;5.80;5.30;;;22.50;99.90;;;;;;4987170;28;20620;-76
2023/06/09 05:38:33;;;;;;;5.80;5.30;;;22.60;99.90;;;;;;5033667;28;20588;-76
2023/06/09 05:40:59;;;;;;;5.70;5.30;;;22.70;99.90;;;;;;5050610;28;20588;-75
2023/06/09 05:43:28;;;;;;;6.37;5.10;;;22.70;99.90;;;;;;5051449;28;20173;-74
2023/06/09 05:45:55;;;;;;;6.17;5.57;;;22.70;99.90;;;;;;5051034;28;20595;-75
2023/06/09 05:48:20;;;;;;;5.60;5.10;;;22.80;99.90;;;;;;5033342;28;20670;-75
2023/06/09 05:50:46;;;;;;;6.53;5.93;;;23.00;99.90;;;;;;5032619;28;21301;-75
2023/06/09 05:53:12;;;;;;;5.40;4.90;;;23.10;99.90;;;;;;5033311;28;20173;-76
2023/06/09 05:55:38;;;;;;;5.50;5.00;;;23.40;99.90;;;;;;5033306;28;20827;-76
2023/06/09 05:58:04;;;;;;;4.50;4.10;;;24.10;99.90;;;;;;5033048;28;20168;-75
2023/06/09 06:00:30;;;;;;;4.77;4.37;;;24.90;99.90;;;;;;5033109;28;20197;-75
2023/06/09 06:02:59;;;;;;;4.33;3.93;;;25.90;99.90;;;;;;5032780;28;21134;-76
2023/06/09 06:05:24;;;;;;;4.27;3.40;;;26.70;99.90;;;;;;5050954;28;20576;-76
2023/06/09 06:07:50;;;;;;;3.70;3.30;;;27.70;99.90;;;;;;5016711;28;21184;-75
2023/06/09 06:10:17;;;;;;;4.07;3.23;;;28.60;99.90;;;;;;5050637;28;20208;-75
2023/06/09 06:12:42;;;;;;;4.10;3.70;;;29.50;99.90;;;;;;5032719;28;20225;-78
2023/06/09 06:15:08;;;;;;;3.60;3.30;;;30.10;99.90;;;;;;5033156;28;20974;-79
2023/06/09 06:17:34;;;;;;;3.80;3.50;;;30.50;99.90;;;;;;5043423;28;20712;-78
2023/06/09 06:20:00;;;;;;;3.20;2.80;;;31.10;99.90;;;;;;5006046;28;20538;-79
2023/06/09 06:22:27;;;;;;;4.97;3.43;;;31.20;99.90;;;;;;5034499;28;20226;-79
2023/06/09 06:24:52;;;;;;;3.40;3.10;;;31.40;99.90;;;;;;5007938;28;20617;-78
2023/06/09 06:27:18;;;;;;;4.27;2.83;;;31.70;99.90;;;;;;5008096;28;20195;-78
2023/06/09 06:29:44;;;;;;;3.23;2.90;;;32.00;99.90;;;;;;5011045;28;20175;-78
2023/06/09 06:32:10;;;;;;;3.10;2.60;;;32.40;99.90;;;;;;5011323;28;20198;-78
2023/06/09 06:34:36;;;;;;;3.30;3.00;;;33.00;99.90;;;;;;4988543;28;20213;-78
2023/06/09 06:37:02;;;;;;;3.33;2.83;;;33.30;99.90;;;;;;5033113;28;20642;-78
2023/06/09 06:39:28;;;;;;;3.57;3.27;;;33.50;99.90;;;;;;5019586;28;20588;-77
2023/06/09 06:41:53;;;;;;;3.23;2.93;;;34.00;99.90;;;;;;5022046;28;20174;-77
2023/06/09 06:44:25;;;;;;;3.30;3.00;;;34.50;99.90;;;;;;4978316;28;20716;-74
2023/06/09 06:46:51;;;;;;;3.33;3.03;;;35.20;99.50;;;;;;5030286;28;20770;-76
2023/06/09 06:49:17;;;;;;;4.07;3.07;;;35.70;97.90;;;;;;5012939;28;20201;-73
2023/06/09 06:51:42;;;;;;;3.33;2.50;;;36.20;96.30;;;;;;5030020;28;20212;-74
2023/06/09 06:54:08;;;;;;;3.20;2.83;;;36.50;94.70;;;;;;5027188;28;20182;-72
2023/06/09 06:56:34;;;;;;;3.50;3.00;;;36.90;93.70;;;;;;5025390;28;20233;-72
2023/06/09 06:58:59;;;;;;;3.60;2.50;;;37.20;92.10;;;;;;5030502;28;20626;-72
2023/06/09 07:01:25;;;;;;;3.17;2.30;;;37.60;90.70;;;;;;5011967;28;20201;-71
2023/06/09 07:03:52;;;;;;;2.43;2.23;;;37.90;89.80;;;;;;5012579;28;20247;-72
2023/06/09 07:06:19;;;;;;;5.03;3.00;;;38.10;81.30;;;;;;5012057;28;20200;-73
2023/06/09 07:08:45;;;;;;;2.83;2.60;;;38.40;77.60;;;;;;5012986;28;20581;-73
2023/06/09 07:11:10;;;;;;;3.57;3.00;;;38.50;72.30;;;;;;5029866;28;20642;-72
2023/06/09 07:13:36;;;;;;;3.37;3.07;;;38.30;68.90;;;;;;5012310;28;20201;-76
2023/06/09 07:16:02;;;;;;;3.87;2.70;;;38.20;68.00;;;;;;4996061;28;20197;-75
2023/06/09 07:18:29;;;;;;;2.83;2.40;;;38.30;67.70;;;;;;5015010;28;20224;-76
2023/06/09 07:20:55;;;;;;;2.70;2.10;;;38.20;66.60;;;;;;5033939;28;20200;-76
2023/06/09 07:23:21;;;;;;;3.40;3.00;;;38.40;67.60;;;;;;4999566;28;21155;-76
2023/06/09 07:25:46;;;;;;;3.27;2.93;;;38.50;63.50;;;;;;5025744;28;20648;-75
2023/06/09 07:28:12;;;;;;;3.40;3.07;;;38.20;60.30;;;;;;5030671;28;20170;-75
2023/06/09 07:30:40;;;;;;;3.50;2.80;;;38.20;61.10;;;;;;5033601;28;20200;-74
2023/06/09 07:33:06;;;;;;;4.77;2.97;;;38.30;60.80;;;;;;5009507;28;20192;-74
2023/06/09 07:35:33;;;;;;;2.90;2.70;;;38.60;59.80;;;;;;5032412;28;20611;-74
2023/06/09 07:37:58;;;;;;;2.93;2.70;;;38.40;58.30;;;;;;5010144;28;20608;-73
2023/06/09 07:40:24;;;;;;;3.20;2.90;;;38.30;57.20;;;;;;4995493;28;21238;-74
2023/06/09 07:42:50;;;;;;;3.37;3.07;;;38.30;56.60;;;;;;5023631;28;20186;-74
2023/06/09 07:45:16;;;;;;;2.67;2.47;;;38.40;57.10;;;;;;5013118;28;20550;-74
2023/06/09 07:47:42;;;;;;;3.20;2.90;;;38.70;56.90;;;;;;5025037;28;20544;-74
2023/06/09 07:50:09;;;;;;;3.70;2.73;;;38.90;56.00;;;;;;5022931;28;20205;-74
2023/06/09 07:52:37;;;;;;;4.90;3.03;;;39.00;55.30;;;;;;4996338;28;20589;-73
2023/06/09 07:55:03;;;;;;;3.53;2.23;;;39.00;54.70;;;;;;5004265;28;20682;-73
2023/06/09 07:57:29;;;;;;;2.20;2.00;;;38.90;54.00;;;;;;5033077;28;20620;-74
2023/06/09 07:59:56;;;;;;;3.63;2.87;;;38.80;54.00;;;;;;5033365;28;20683;-75
2023/06/09 08:02:21;;;;;;;3.13;2.83;;;38.50;52.90;;;;;;5026903;28;20187;-75
2023/06/09 08:04:47;;;;;;;2.80;2.60;;;38.40;53.00;;;;;;4996215;28;20616;-75
2023/06/09 08:07:13;;;;;;;2.80;2.60;;;38.10;51.20;;;;;;5031268;28;20613;-74
2023/06/09 08:09:39;;;;;;;4.90;2.50;;;38.20;53.10;;;;;;5035567;28;20169;-76
2023/06/09 08:12:06;;;;;;;2.90;2.60;;;38.60;53.90;;;;;;5032807;28;20205;-75
2023/06/09 08:14:32;;;;;;;2.63;2.43;;;38.60;52.70;;;;;;5015226;28;20170;-75
2023/06/09 08:16:59;;;;;;;3.17;2.30;;;38.50;51.90;;;;;;4998754;28;20599;-74
2023/06/09 08:19:25;;;;;;;3.40;2.60;;;38.50;52.80;;;;;;5034186;28;20575;-74
2023/06/09 08:21:51;;;;;;;3.37;2.50;;;38.80;51.60;;;;;;5028308;28;20594;-75
2023/06/09 08:24:17;;;;;;;3.90;2.57;;;38.80;52.40;;;;;;5031216;28;20596;-75
2023/06/09 08:26:43;;;;;;;4.33;2.70;;;39.00;52.00;;;;;;4996017;28;21391;-75
2023/06/09 08:29:10;;;;;;;2.33;2.03;;;39.30;52.20;;;;;;4984046;28;20178;-75
2023/06/09 08:31:37;;;;;;;3.10;2.30;;;39.70;52.30;;;;;;5014626;28;20198;-75
2023/06/09 08:34:03;;;;;;;2.70;2.50;;;40.10;52.10;;;;;;5013281;28;20607;-75
2023/06/09 08:36:29;;;;;;;2.27;2.07;;;40.30;50.30;;;;;;5014283;28;20611;-75
2023/06/09 08:38:55;;;;;;;3.20;2.80;;;40.40;50.10;;;;;;5034563;28;20605;-75
2023/06/09 08:41:25;;;;;;;2.63;2.33;;;40.70;50.00;;;;;;5008314;28;20181;-74
2023/06/09 08:43:51;;;;;;;3.30;2.50;;;40.80;49.10;;;;;;5047758;28;20581;-73
2023/06/09 08:46:19;;;;;;;3.33;3.03;;;41.00;48.90;;;;;;5048043;28;20669;-74
2023/06/09 08:48:56;;;;;;;2.40;2.20;;;41.00;47.80;;;;;;5015053;28;20178;-75
2023/06/09 08:51:22;;;;;;;3.77;2.80;;;40.90;48.10;;;;;;5014213;28;20670;-74
2023/06/09 08:53:52;;;;;;;3.03;2.50;;;40.60;45.50;;;;;;5014961;28;20572;-74
2023/06/09 08:56:22;;;;;;;3.23;2.93;;;40.10;46.00;;;;;;5014445;28;20197;-74
2023/06/09 08:58:49;;;;;;;2.90;1.90;;;40.10;46.30;;;;;;4998572;28;20591;-74
2023/06/09 09:01:20;;;;;;;3.00;2.27;;;40.10;47.10;;;;;;5031717;28;20595;-74
2023/06/09 09:03:47;;;;;;;3.37;2.40;;;40.30;47.20;;;;;;5032458;28;20608;-73
2023/06/09 09:06:13;;;;;;;2.50;2.13;;;40.20;46.70;;;;;;4997820;28;20620;-74
2023/06/09 09:08:40;;;;;;;3.00;2.57;;;40.40;47.30;;;;;;5032147;28;20608;-74
2023/06/09 09:11:05;;;;;;;2.50;1.63;;;40.60;46.40;;;;;;5025240;28;20636;-74
2023/06/09 09:13:31;;;;;;;2.70;2.43;;;40.80;47.00;;;;;;5003263;28;20604;-74
2023/06/09 09:16:01;;;;;;;3.07;2.40;;;40.90;45.10;;;;;;5020074;28;20682;-74
2023/06/09 09:18:34;;;;;;;2.33;2.13;;;40.80;44.20;;;;;;5014255;28;20181;-74
2023/06/09 09:21:01;;;;;;;3.60;2.57;;;40.70;44.10;;;;;;5013818;28;20596;-75
2023/06/09 09:23:33;;;;;;;2.97;2.27;;;40.50;43.20;;;;;;5031779;28;20576;-75
2023/06/09 09:26:00;;;;;;;2.50;2.17;;;40.30;43.10;;;;;;5031990;28;21175;-74
2023/06/09 09:28:40;;;;;;;4.53;2.53;;;40.20;43.40;;;;;;5030849;28;20588;-74
2023/06/09 09:31:09;;;;;;;4.00;2.93;;;40.30;42.60;;;;;;5028506;28;20635;-75
2023/06/09 09:33:39;;;;;;;5.00;2.97;;;40.30;41.30;;;;;;5029681;28;20588;-75
2023/06/09 09:36:12;;;;;;;2.37;2.17;;;39.70;40.30;;;;;;5001827;28;20663;-75
2023/06/09 09:38:44;;;;;;;2.20;2.00;;;39.30;41.30;;;;;;5049525;28;20583;-76
2023/06/09 09:41:13;;;;;;;2.37;2.10;;;39.30;41.90;;;;;;5031071;28;20753;-75
2023/06/09 09:43:41;;;;;;;2.20;1.83;;;39.10;41.80;;;;;;5049225;28;20587;-75
2023/06/09 09:46:08;;;;;;;2.30;1.73;;;39.20;41.70;;;;;;5050684;28;20607;-75
2023/06/09 09:48:37;;;;;;;3.13;2.80;;;39.40;42.00;;;;;;5051021;28;20581;-75
2023/06/09 09:51:04;;;;;;;2.60;2.40;;;39.30;40.50;;;;;;5033094;28;20634;-74
2023/06/09 09:53:30;;;;;;;5.13;2.80;;;39.20;40.70;;;;;;5051022;28;20641;-75
2023/06/09 09:55:59;;;;;;;3.00;2.13;;;39.20;40.70;;;;;;5051463;28;20615;-75
2023/06/09 09:58:30;;;;;;;2.37;2.10;;;39.10;39.90;;;;;;5033382;28;20607;-75
2023/06/09 10:01:03;;;;;;;2.67;1.97;;;39.00;40.30;;;;;;5050843;28;20590;-75
2023/06/09 10:03:30;;;;;;;2.43;1.70;;;39.10;40.70;;;;;;5033633;28;20588;-75
2023/06/09 10:05:59;;;;;;;1.90;1.50;;;39.10;40.30;;;;;;5003629;28;20632;-75
2023/06/09 10:08:30;;;;;;;3.20;1.80;;;39.10;40.50;;;;;;5031228;28;20999;-75
2023/06/09 10:10:59;;;;;;;2.30;2.10;;;39.10;39.80;;;;;;5012871;28;20639;-75
2023/06/09 10:13:26;;;;;;;3.23;2.00;;;39.00;39.90;;;;;;4997094;28;20580;-75
2023/06/09 10:15:53;;;;;;;2.20;2.00;;;39.00;40.10;;;;;;5030418;28;20647;-75
2023/06/09 10:18:20;;;;;;;2.23;1.83;;;39.10;40.10;;;;;;5013190;28;20940;-75
2023/06/09 10:20:48;;;;;;;2.73;2.03;;;39.20;41.00;;;;;;5030395;28;20684;-75
2023/06/09 10:23:15;;;;;;;2.20;1.80;;;39.50;40.50;;;;;;5013211;28;20615;-75
2023/06/09 10:25:42;;;;;;;2.63;2.07;;;39.50;39.80;;;;;;5030338;28;20596;-75
2023/06/09 10:28:10;;;;;;;2.10;1.87;;;39.60;39.90;;;;;;5030872;28;20572;-75
2023/06/09 10:30:36;;;;;;;2.03;1.83;;;39.40;39.20;;;;;;5012523;28;20685;-75
2023/06/09 10:33:26;;;;;;;3.37;2.10;;;39.50;39.30;;;;;;4980316;28;20639;-75
2023/06/09 10:35:57;;;;;;;2.30;1.97;;;39.40;38.40;;;;;;5034320;28;20651;-75
2023/06/09 10:38:38;;;;;;;2.60;2.40;;;39.20;37.70;;;;;;5050942;28;20584;-74
2023/06/09 10:41:28;;;;;;;2.47;2.13;;;39.00;36.40;;;;;;5032642;28;20591;-75
2023/06/09 10:43:59;;;;;;;2.63;1.73;;;38.80;38.60;;;;;;5020394;28;20685;-75
2023/06/09 10:46:45;;;;;;;3.80;2.50;;;38.70;38.50;;;;;;5032583;28;20623;-75
2023/06/09 10:49:35;;;;;;;2.83;2.13;;;38.80;38.70;;;;;;5032878;28;20591;-74
2023/06/09 10:52:02;;;;;;;3.13;2.20;;;38.70;37.50;;;;;;5050601;28;20768;-75
2023/06/09 10:54:29;;;;;;;5.13;1.80;;;38.60;39.10;;;;;;5036890;28;21223;-75
2023/06/09 10:57:00;;;;;;;5.90;2.10;;;38.30;38.40;;;;;;5036624;28;20623;-75
2023/06/09 10:59:26;;;;;;;2.60;1.97;;;38.00;38.80;;;;;;5054466;28;20586;-76
2023/06/09 11:02:04;;;;;;;2.30;1.90;;;37.80;38.90;;;;;;5026253;28;20673;-75
2023/06/09 11:04:44;;;;;;;2.33;1.73;;;37.70;38.20;;;;;;5034203;28;20186;-75
2023/06/09 11:07:18;;;;;;;2.20;1.77;;;37.50;37.60;;;;;;5000646;28;20972;-75
2023/06/09 11:10:06;;;;;;;4.50;2.40;;;37.30;38.80;;;;;;5016095;28;20584;-75
2023/06/09 11:12:46;;;;;;;3.00;1.93;;;37.20;38.40;;;;;;5021222;28;20599;-74
2023/06/09 11:15:15;;;;;;;2.43;1.87;;;37.30;38.90;;;;;;5026302;28;20600;-74
2023/06/09 11:17:43;;;;;;;2.30;2.10;;;37.20;39.10;;;;;;5000419;28;20572;-75
2023/06/09 11:20:09;;;;;;;2.33;2.13;;;37.20;40.00;;;;;;5033743;28;20941;-75
2023/06/09 11:22:55;;;;;;;4.43;1.87;;;37.40;40.90;;;;;;4999973;28;20680;-75
2023/06/09 11:25:22;;;;;;;1.90;1.67;;;37.50;39.70;;;;;;5015881;28;20188;-75
2023/06/09 11:28:09;;;;;;;2.57;2.13;;;37.60;39.80;;;;;;5016074;28;20572;-75
2023/06/09 11:30:55;;;;;;;2.33;1.90;;;37.70;40.20;;;;;;5033274;28;20746;-75
2023/06/09 11:33:43;;;;;;;3.67;2.60;;;37.80;39.80;;;;;;5033942;28;20670;-75
2023/06/09 11:36:09;;;;;;;2.20;2.00;;;37.60;37.50;;;;;;5022423;28;20634;-75
2023/06/09 11:38:36;;;;;;;2.47;1.90;;;37.60;38.00;;;;;;5054098;28;20586;-75
2023/06/09 11:41:04;;;;;;;2.30;1.57;;;37.30;37.70;;;;;;5053242;28;20579;-75
2023/06/09 11:43:29;;;;;;;2.00;1.80;;;37.10;38.30;;;;;;5053945;28;20929;-75
2023/06/09 11:46:02;;;;;;;2.10;1.60;;;37.10;38.00;;;;;;5018928;28;20602;-75
2023/06/09 11:48:27;;;;;;;3.27;1.83;;;37.00;37.90;;;;;;5053812;28;20189;-76
2023/06/09 11:50:53;;;;;;;2.57;2.00;;;37.00;38.70;;;;;;5035030;28;20626;-75
2023/06/09 11:53:21;;;;;;;3.90;2.17;;;36.80;37.30;;;;;;5019360;28;20573;-76
2023/06/09 11:55:56;;;;;;;3.70;1.97;;;36.70;38.20;;;;;;5035138;28;20966;-76
2023/06/09 11:58:22;;;;;;;2.33;2.03;;;36.70;38.10;;;;;;5041169;28;20698;-76
2023/06/09 12:00:49;;;;;;;2.10;1.63;;;36.60;38.30;;;;;;4999016;28;20679;-76
2023/06/09 12:03:21;;;;;;;3.13;2.13;;;36.60;38.50;;;;;;5032896;28;20244;-75
2023/06/09 12:05:51;;;;;;;2.50;1.93;;;36.60;38.50;;;;;;5033439;28;20612;-75
2023/06/09 12:08:18;;;;;;;2.20;1.60;;;36.50;38.40;;;;;;5032994;28;20590;-76
2023/06/09 12:10:44;;;;;;;3.70;1.57;;;36.50;38.40;;;;;;5015523;28;21059;-76
2023/06/09 12:13:09;;;;;;;3.53;2.40;;;36.40;38.00;;;;;;5032934;28;20573;-75
2023/06/09 12:15:35;;;;;;;2.70;1.83;;;36.40;37.60;;;;;;5033463;28;20181;-75
2023/06/09 12:18:02;;;;;;;2.20;1.93;;;36.30;37.60;;;;;;5032990;28;20193;-76
2023/06/09 12:20:29;;;;;;;2.60;2.37;;;36.30;37.80;;;;;;5033086;28;20169;-76
2023/06/09 12:23:12;;;;;;;2.80;2.10;;;36.20;37.00;;;;;;5015099;28;21196;-76
2023/06/09 12:25:40;;;;;;;4.47;2.50;;;36.10;36.70;;;;;;5033068;28;21285;-76
2023/06/09 12:28:12;;;;;;;3.30;2.20;;;35.90;36.50;;;;;;5014893;28;20595;-76
2023/06/09 12:30:47;;;;;;;2.13;1.83;;;35.80;36.50;;;;;;5014924;28;21241;-76
2023/06/09 12:33:17;;;;;;;3.87;2.30;;;35.60;36.40;;;;;;5014865;28;20606;-77
2023/06/09 12:35:48;;;;;;;3.07;2.07;;;35.40;36.60;;;;;;5035942;28;20970;-76
2023/06/09 12:38:19;;;;;;;3.20;2.10;;;35.20;36.70;;;;;;5052450;28;20920;-75
2023/06/09 12:40:47;;;;;;;2.73;2.00;;;34.90;36.40;;;;;;5034787;28;20603;-75
2023/06/09 12:43:17;;;;;;;2.97;1.97;;;34.70;36.70;;;;;;5052768;28;21046;-75
2023/06/09 12:45:45;;;;;;;2.90;2.30;;;34.50;36.70;;;;;;5034439;28;20603;-75
2023/06/09 12:48:10;;;;;;;3.03;2.10;;;34.20;36.80;;;;;;5034959;28;21157;-75
2023/06/09 12:50:37;;;;;;;2.30;2.10;;;34.10;37.30;;;;;;5051818;28;20721;-75
2023/06/09 12:53:10;;;;;;;2.57;1.83;;;33.80;36.70;;;;;;5052481;28;20199;-76
2023/06/09 12:55:38;;;;;;;4.00;2.50;;;33.70;37.30;;;;;;4999011;28;20621;-76
2023/06/09 12:58:05;;;;;;;2.67;1.80;;;33.50;37.40;;;;;;4982291;28;20644;-77
2023/06/09 13:00:31;;;;;;;2.60;2.10;;;33.40;37.60;;;;;;5014179;28;20587;-72
2023/06/09 13:03:03;;;;;;;2.43;2.03;;;33.30;37.90;;;;;;5014520;28;20587;-72
2023/06/09 13:05:30;;;;;;;2.60;2.23;;;33.30;37.90;;;;;;5013793;28;20660;-72
2023/06/09 13:08:00;;;;;;;4.07;2.50;;;33.20;38.70;;;;;;5032320;28;20942;-72
2023/06/09 13:10:27;;;;;;;2.60;2.30;;;33.10;38.10;;;;;;5031618;28;21071;-72
2023/06/09 13:12:53;;;;;;;3.27;2.97;;;33.00;38.30;;;;;;5032261;28;20606;-73
2023/06/09 13:15:24;;;;;;;6.97;3.80;;;32.90;38.50;;;;;;4997007;28;20585;-76
2023/06/09 13:17:51;;;;;;;4.87;3.10;;;32.90;39.40;;;;;;5014298;28;20568;-76
2023/06/09 13:20:17;;;;;;;2.90;2.63;;;32.70;38.50;;;;;;5031800;28;20928;-75
2023/06/09 13:22:45;;;;;;;4.00;3.53;;;32.50;38.60;;;;;;5013922;28;20582;-76
2023/06/09 13:25:10;;;;;;;3.50;3.20;;;32.40;38.60;;;;;;5014315;28;21011;-76
2023/06/09 13:27:39;;;;;;;3.17;2.57;;;32.10;38.50;;;;;;5013760;28;20672;-76
2023/06/09 13:30:06;;;;;;;4.97;2.73;;;32.10;38.90;;;;;;5013961;28;20534;-76
2023/06/09 13:32:32;;;;;;;3.93;3.30;;;32.00;39.20;;;;;;5013990;28;20600;-76
2023/06/09 13:34:58;;;;;;;2.37;2.17;;;32.00;39.10;;;;;;5010758;28;20643;-77
2023/06/09 13:37:23;;;;;;;3.13;2.10;;;32.00;39.30;;;;;;5007787;28;20196;-77
2023/06/09 13:39:49;;;;;;;4.30;2.70;;;32.00;39.20;;;;;;4994188;28;20182;-76
2023/06/09 13:42:15;;;;;;;3.50;2.43;;;32.00;39.30;;;;;;5019848;23;20230;-78
2023/06/09 13:44:41;;;;;;;2.83;2.47;;;32.00;39.50;;;;;;5022607;28;20675;-81
2023/06/09 13:47:07;;;;;;;2.30;1.87;;;32.00;39.40;;;;;;5013647;28;20191;-81
2023/06/09 13:49:32;;;;;;;3.10;2.23;;;32.10;39.40;;;;;;5021596;28;20174;-71
2023/06/09 13:51:58;;;;;;;3.20;2.40;;;32.10;39.40;;;;;;5013430;28;20233;-71
2023/06/09 13:54:24;;;;;;;3.30;2.07;;;32.00;39.70;;;;;;4994301;28;20182;-71
2023/06/09 13:56:50;;;;;;;3.63;2.00;;;32.00;39.60;;;;;;5029900;28;20251;-79
2023/06/09 13:59:16;;;;;;;2.40;2.20;;;32.00;39.60;;;;;;5013474;28;20619;-72
2023/06/09 14:01:44;;;;;;;3.87;2.40;;;32.00;39.60;;;;;;5022417;28;20649;-72
2023/06/09 14:04:11;;;;;;;2.90;2.60;;;32.00;39.80;;;;;;5023137;28;20177;-72
2023/06/09 14:06:41;;;;;;;2.97;2.47;;;32.10;39.80;;;;;;5031419;28;20572;-72
2023/06/09 14:09:07;;;;;;;3.13;2.20;;;32.10;39.70;;;;;;5029698;28;20596;-72
2023/06/09 14:11:38;;;;;;;2.70;2.03;;;32.10;39.80;;;;;;5030880;28;20666;-72
2023/06/09 14:14:06;;;;;;;3.60;2.00;;;32.10;39.50;;;;;;5029741;28;20575;-72
2023/06/09 14:16:32;;;;;;;2.70;2.50;;;32.20;39.40;;;;;;5029956;28;20587;-72
2023/06/09 14:18:57;;;;;;;2.13;1.90;;;32.20;39.40;;;;;;5031262;28;20660;-72
2023/06/09 14:21:23;;;;;;;3.03;2.33;;;32.30;39.30;;;;;;5028396;28;20232;-73
2023/06/09 14:23:49;;;;;;;4.80;2.50;;;32.30;39.20;;;;;;5031549;28;20225;-73
2023/06/09 14:26:14;;;;;;;5.40;2.83;;;32.30;39.30;;;;;;5030990;28;20176;-73
2023/06/09 14:28:41;;;;;;;3.90;2.70;;;32.20;38.90;;;;;;5029936;28;20178;-73
2023/06/09 14:31:08;;;;;;;5.50;2.57;;;32.20;39.30;;;;;;5029286;28;20182;-72
2023/06/09 14:33:34;;;;;;;2.73;2.50;;;32.20;39.60;;;;;;5031215;28;20636;-74
2023/06/09 14:36:00;;;;;;;5.33;2.93;;;32.30;39.40;;;;;;5029489;28;20614;-74
2023/06/09 14:38:28;;;;;;;2.90;2.33;;;32.30;39.40;;;;;;5029917;28;20574;-73
2023/06/09 14:40:54;;;;;;;3.17;2.80;;;32.40;39.50;;;;;;5012679;28;20649;-73
2023/06/09 14:43:20;;;;;;;3.90;2.70;;;32.40;39.40;;;;;;5030772;28;20643;-73
2023/06/09 14:45:46;;;;;;;3.93;3.60;;;32.50;40.20;;;;;;5031064;28;20635;-73
2023/06/09 14:48:12;;;;;;;3.10;2.53;;;32.40;39.10;;;;;;5030395;28;20577;-72
2023/06/09 14:50:40;;;;;;;5.80;3.20;;;32.50;39.50;;;;;;5029275;28;20268;-72
2023/06/09 14:53:08;;;;;;;2.97;2.77;;;32.40;39.30;;;;;;5029148;28;20659;-72
2023/06/09 14:55:43;;;;;;;3.37;2.97;;;32.40;39.60;;;;;;5028357;28;20632;-72
2023/06/09 14:58:09;;;;;;;3.00;2.17;;;32.50;39.80;;;;;;5020486;28;20625;-72
2023/06/09 15:00:38;;;;;;;3.33;2.73;;;32.50;39.70;;;;;;5025727;28;20733;-72
2023/06/09 15:03:09;;;;;;;3.53;3.10;;;32.50;40.40;;;;;;5029002;28;20598;-73
2023/06/09 15:05:35;;;;;;;3.80;3.00;;;32.60;39.90;;;;;;5029521;28;20634;-73
2023/06/09 15:08:02;;;;;;;4.67;2.60;;;32.70;39.80;;;;;;5030395;28;20586;-73
2023/06/09 15:10:30;;;;;;;3.53;2.40;;;32.80;39.90;;;;;;5030590;28;20575;-73
2023/06/09 15:12:57;;;;;;;4.60;2.80;;;32.80;40.00;;;;;;5028905;28;20607;-73